Time;durP1;ratioP1;P1;durP2;ratioP2;P2;SDS_P1;SDS_P2;PMS_P1;PMS_P2;Temp;Humidity;BMP_temperature;BMP_pressure;BME280_temperature;BME280_humidity;BME280_pressure;Samples;Min_cycle;Max_cycle;Signal;HPM_P1;HPM_P2
2023/04/07 00:01:18;;;;;;;22.80;15.27;;;4.10;92.10;;;;;;5085013;28;20028;-67
2023/04/07 00:03:43;;;;;;;23.65;14.90;;;4.10;91.20;;;;;;5077500;28;20044;-66
2023/04/07 00:06:09;;;;;;;24.90;16.10;;;4.10;91.40;;;;;;5082076;28;20021;-66
2023/04/07 00:08:35;;;;;;;25.90;15.75;;;4.10;91.20;;;;;;5087658;28;20143;-66
2023/04/07 00:11:00;;;;;;;27.25;16.83;;;4.10;91.10;;;;;;5086340;28;20459;-67
2023/04/07 00:13:26;;;;;;;24.20;14.52;;;4.10;90.90;;;;;;5072880;28;20107;-66
2023/04/07 00:15:51;;;;;;;28.33;15.55;;;4.10;92.40;;;;;;5075378;28;20028;-66
2023/04/07 00:18:17;;;;;;;25.77;16.83;;;4.10;92.80;;;;;;5090281;28;20401;-66
2023/04/07 00:20:43;;;;;;;23.15;15.98;;;4.10;92.50;;;;;;5082781;28;20081;-66
2023/04/07 00:23:08;;;;;;;23.67;16.02;;;4.10;93.10;;;;;;5079552;28;20070;-66
2023/04/07 00:25:34;;;;;;;28.27;17.55;;;4.10;94.00;;;;;;5087516;28;20029;-66
2023/04/07 00:27:59;;;;;;;26.67;16.35;;;4.20;93.60;;;;;;5074774;28;20016;-66
2023/04/07 00:30:25;;;;;;;23.33;15.55;;;4.20;93.20;;;;;;5077553;28;20055;-66
2023/04/07 00:32:51;;;;;;;26.80;16.88;;;4.20;93.70;;;;;;5079656;28;20078;-66
2023/04/07 00:35:16;;;;;;;23.70;15.88;;;4.20;93.90;;;;;;5074892;28;20021;-66
2023/04/07 00:37:42;;;;;;;23.02;15.45;;;4.20;93.70;;;;;;5074009;28;20067;-66
2023/04/07 00:40:08;;;;;;;24.65;16.60;;;4.20;93.50;;;;;;5079031;28;20377;-66
2023/04/07 00:42:34;;;;;;;24.52;15.90;;;4.20;93.10;;;;;;5076690;28;20024;-65
2023/04/07 00:45:00;;;;;;;24.92;16.58;;;4.20;94.10;;;;;;5092154;28;20057;-66
2023/04/07 00:47:25;;;;;;;26.40;17.55;;;4.20;93.90;;;;;;5083564;28;20426;-66
2023/04/07 00:49:51;;;;;;;24.85;17.00;;;4.30;93.90;;;;;;5078556;28;20086;-66
2023/04/07 00:52:18;;;;;;;26.48;17.13;;;4.30;94.30;;;;;;5083981;28;20027;-66
2023/04/07 00:54:45;;;;;;;26.80;16.73;;;4.30;94.50;;;;;;5078449;28;20040;-66
2023/04/07 00:57:11;;;;;;;26.38;16.10;;;4.30;94.40;;;;;;5084899;28;20123;-66
2023/04/07 00:59:37;;;;;;;27.52;17.00;;;4.40;95.40;;;;;;5077719;28;20103;-66
2023/04/07 01:02:09;;;;;;;27.02;16.45;;;4.40;96.10;;;;;;5079797;28;20421;-66
2023/04/07 01:04:42;;;;;;;26.92;17.60;;;4.40;95.80;;;;;;5084802;28;20020;-66
2023/04/07 01:07:16;;;;;;;28.10;16.75;;;4.50;96.30;;;;;;5087887;28;20032;-65
2023/04/07 01:09:51;;;;;;;25.85;15.95;;;4.50;95.60;;;;;;5079368;28;20021;-65
2023/04/07 01:12:35;;;;;;;29.45;17.17;;;4.50;96.20;;;;;;5084488;28;20358;-66
2023/04/07 01:15:08;;;;;;;25.80;16.40;;;4.50;96.40;;;;;;5076698;28;20033;-66
2023/04/07 01:17:36;;;;;;;25.08;17.75;;;4.50;97.20;;;;;;5091338;28;20032;-66
2023/04/07 01:20:07;;;;;;;24.80;16.17;;;4.60;96.50;;;;;;5081171;28;20028;-66
2023/04/07 01:22:39;;;;;;;26.65;17.13;;;4.60;97.30;;;;;;5081498;28;20024;-66
2023/04/07 01:25:27;;;;;;;25.95;17.35;;;4.60;96.90;;;;;;5088013;28;20021;-66
2023/04/07 01:28:30;;;;;;;24.10;16.60;;;4.60;97.20;;;;;;5083081;28;20085;-65
2023/04/07 01:30:58;;;;;;;26.52;17.10;;;4.70;97.30;;;;;;5076981;28;20033;-65
2023/04/07 01:33:25;;;;;;;22.48;15.75;;;4.60;97.20;;;;;;5078465;28;20024;-65
2023/04/07 01:35:51;;;;;;;25.55;16.92;;;4.70;96.50;;;;;;5085236;28;20028;-66
2023/04/07 01:38:18;;;;;;;23.15;15.90;;;4.70;97.10;;;;;;5082433;28;20418;-65
2023/04/07 01:40:45;;;;;;;24.35;16.70;;;4.60;96.80;;;;;;5091449;28;20127;-65
2023/04/07 01:43:11;;;;;;;25.42;16.33;;;4.70;97.00;;;;;;5079594;28;20028;-66
2023/04/07 01:45:38;;;;;;;23.13;15.45;;;4.70;97.10;;;;;;5079218;28;20042;-65
2023/04/07 01:48:05;;;;;;;26.52;16.08;;;4.70;97.40;;;;;;5077814;28;20104;-65
2023/04/07 01:50:32;;;;;;;24.63;16.23;;;4.80;97.80;;;;;;5086142;28;20040;-65
2023/04/07 01:52:58;;;;;;;25.20;17.13;;;4.80;97.40;;;;;;5089921;28;20103;-66
2023/04/07 01:55:24;;;;;;;23.27;15.73;;;4.80;98.00;;;;;;5084422;28;20028;-66
2023/04/07 01:57:52;;;;;;;25.20;16.30;;;4.80;97.60;;;;;;5082310;28;20794;-66
2023/04/07 02:00:18;;;;;;;23.70;15.77;;;4.90;98.00;;;;;;5076794;28;20321;-65
2023/04/07 02:02:46;;;;;;;22.27;15.02;;;4.90;98.00;;;;;;5077710;28;20036;-65
2023/04/07 02:05:16;;;;;;;23.27;15.85;;;4.90;97.90;;;;;;5082124;28;20032;-66
2023/04/07 02:07:56;;;;;;;22.27;14.85;;;4.90;98.00;;;;;;5088201;28;20020;-66
2023/04/07 02:10:24;;;;;;;24.65;15.02;;;5.00;98.00;;;;;;5078697;28;20409;-65
2023/04/07 02:12:51;;;;;;;23.63;15.70;;;5.00;98.00;;;;;;5077260;28;20028;-65
2023/04/07 02:15:17;;;;;;;22.08;15.02;;;5.00;98.00;;;;;;5080437;28;20019;-65
2023/04/07 02:17:47;;;;;;;21.33;14.48;;;5.00;98.00;;;;;;5089888;28;20447;-66
2023/04/07 02:20:15;;;;;;;21.55;14.75;;;5.00;98.00;;;;;;5084279;28;20103;-66
2023/04/07 02:22:43;;;;;;;23.45;14.60;;;5.10;98.00;;;;;;5082244;28;20031;-66
2023/04/07 02:25:25;;;;;;;25.63;15.18;;;5.10;98.00;;;;;;5079576;28;20051;-66
2023/04/07 02:27:52;;;;;;;22.70;14.80;;;5.10;98.00;;;;;;5086688;28;20057;-66
2023/04/07 02:30:18;;;;;;;22.02;14.40;;;5.20;98.00;;;;;;5079933;28;20016;-66
2023/04/07 02:32:45;;;;;;;21.05;14.48;;;5.20;98.00;;;;;;5096091;28;20059;-66
2023/04/07 02:35:11;;;;;;;22.42;13.88;;;5.20;98.00;;;;;;5082206;28;20038;-65
2023/04/07 02:37:37;;;;;;;22.38;14.00;;;5.20;98.00;;;;;;5082985;28;20035;-65
2023/04/07 02:40:04;;;;;;;19.00;13.57;;;5.20;98.00;;;;;;5090334;28;20027;-65
2023/04/07 02:42:30;;;;;;;20.13;13.68;;;5.20;98.00;;;;;;5076443;28;20021;-64
2023/04/07 02:44:56;;;;;;;19.55;12.82;;;5.20;98.00;;;;;;5083118;28;20364;-65
2023/04/07 02:47:21;;;;;;;19.67;12.77;;;5.30;98.00;;;;;;5080046;28;20072;-66
2023/04/07 02:49:47;;;;;;;19.17;12.90;;;5.30;98.00;;;;;;5093614;28;20024;-66
2023/04/07 02:52:16;;;;;;;19.55;13.00;;;5.30;98.00;;;;;;5085619;28;20046;-66
2023/04/07 02:54:41;;;;;;;21.20;13.18;;;5.30;98.00;;;;;;5085077;28;20104;-66
2023/04/07 02:57:07;;;;;;;17.25;12.23;;;5.30;98.00;;;;;;5077658;28;20116;-66
2023/04/07 02:59:32;;;;;;;17.58;12.43;;;5.30;98.00;;;;;;5094031;28;20103;-65
2023/04/07 03:01:58;;;;;;;17.15;11.13;;;5.30;98.00;;;;;;5080646;28;20421;-66
2023/04/07 03:04:24;;;;;;;17.42;11.43;;;5.40;98.00;;;;;;5086146;28;20033;-67
2023/04/07 03:06:49;;;;;;;17.65;11.13;;;5.40;98.00;;;;;;5085077;28;20339;-65
2023/04/07 03:09:15;;;;;;;15.63;10.63;;;5.50;98.00;;;;;;5082229;28;20027;-67
2023/04/07 03:11:41;;;;;;;18.38;10.98;;;5.50;97.90;;;;;;5087561;28;20028;-66
2023/04/07 03:14:06;;;;;;;16.13;10.40;;;5.50;97.80;;;;;;5076894;28;20338;-66
2023/04/07 03:16:32;;;;;;;17.35;10.55;;;5.60;97.60;;;;;;5079122;28;20020;-65
2023/04/07 03:18:58;;;;;;;17.40;10.82;;;5.60;97.70;;;;;;5080709;28;20039;-66
2023/04/07 03:21:23;;;;;;;18.10;10.85;;;5.60;97.30;;;;;;5079517;28;20043;-65
2023/04/07 03:23:49;;;;;;;16.65;11.23;;;5.60;97.60;;;;;;5091498;28;20492;-65
2023/04/07 03:26:15;;;;;;;14.93;10.25;;;5.60;97.90;;;;;;5088971;28;20035;-66
2023/04/07 03:28:40;;;;;;;14.68;10.50;;;5.50;97.80;;;;;;5076528;28;20069;-65
2023/04/07 03:31:06;;;;;;;18.35;11.50;;;5.50;97.80;;;;;;5083273;28;20082;-66
2023/04/07 03:33:31;;;;;;;15.07;10.50;;;5.40;98.00;;;;;;5091834;28;20024;-65
2023/04/07 03:35:57;;;;;;;15.55;10.63;;;5.50;98.00;;;;;;5085335;28;20429;-65
2023/04/07 03:38:22;;;;;;;15.95;10.00;;;5.50;97.90;;;;;;5077908;28;20368;-66
2023/04/07 03:40:48;;;;;;;13.25;8.95;;;5.60;97.80;;;;;;5083423;28;20317;-66
2023/04/07 03:43:14;;;;;;;13.00;8.68;;;5.50;97.90;;;;;;5091398;28;20040;-66
2023/04/07 03:45:43;;;;;;;15.45;9.02;;;5.50;97.80;;;;;;5078869;28;20016;-66
2023/04/07 03:48:11;;;;;;;12.85;8.30;;;5.40;98.00;;;;;;5080297;28;20028;-66
2023/04/07 03:50:38;;;;;;;12.77;8.45;;;5.40;97.90;;;;;;5081185;28;20069;-67
2023/04/07 03:53:04;;;;;;;13.25;8.00;;;5.50;97.60;;;;;;5076514;28;20048;-67
2023/04/07 03:55:30;;;;;;;12.60;8.23;;;5.50;97.70;;;;;;5079777;28;20021;-65
2023/04/07 03:57:56;;;;;;;15.75;8.55;;;5.50;98.00;;;;;;5087873;28;20385;-66
2023/04/07 04:00:21;;;;;;;13.13;8.70;;;5.50;97.90;;;;;;5078658;28;20115;-66
2023/04/07 04:02:47;;;;;;;13.35;8.32;;;5.50;97.80;;;;;;5074653;28;21649;-64
2023/04/07 04:05:13;;;;;;;14.55;9.55;;;5.40;98.00;;;;;;5075914;28;20035;-66
2023/04/07 04:07:38;;;;;;;13.90;8.75;;;5.40;97.70;;;;;;5085083;28;20040;-66
2023/04/07 04:10:04;;;;;;;14.23;8.23;;;5.30;97.90;;;;;;5085282;28;20367;-63
2023/04/07 04:12:30;;;;;;;14.60;8.90;;;5.20;97.90;;;;;;5084635;28;20031;-64
2023/04/07 04:14:55;;;;;;;16.73;11.13;;;5.10;97.80;;;;;;5083870;28;20448;-64
2023/04/07 04:17:21;;;;;;;18.77;11.05;;;5.10;97.10;;;;;;5081024;28;20039;-65
2023/04/07 04:19:47;;;;;;;15.80;10.80;;;5.00;96.70;;;;;;5085457;28;20037;-65
2023/04/07 04:22:12;;;;;;;14.77;9.68;;;4.90;96.80;;;;;;5077751;28;20017;-64
2023/04/07 04:24:38;;;;;;;15.32;9.27;;;4.90;96.70;;;;;;5081816;28;20050;-65
2023/04/07 04:27:04;;;;;;;13.73;9.63;;;4.80;96.50;;;;;;5086745;28;20032;-64
2023/04/07 04:29:29;;;;;;;16.02;9.55;;;4.80;96.70;;;;;;5076785;28;20079;-64
2023/04/07 04:31:55;;;;;;;12.85;8.15;;;4.90;96.30;;;;;;5080615;28;20033;-65
2023/04/07 04:34:20;;;;;;;14.88;10.20;;;4.90;97.00;;;;;;5089547;28;20063;-64
2023/04/07 04:36:47;;;;;;;14.13;9.52;;;4.90;96.70;;;;;;5086745;28;20050;-64
2023/04/07 04:39:13;;;;;;;15.93;9.73;;;4.90;96.10;;;;;;5087391;28;20354;-64
2023/04/07 04:41:39;;;;;;;16.73;9.43;;;5.00;97.50;;;;;;5085057;28;20020;-65
2023/04/07 04:44:04;;;;;;;15.13;9.63;;;4.90;96.20;;;;;;5091036;28;20016;-65
2023/04/07 04:46:30;;;;;;;16.05;10.00;;;4.80;96.30;;;;;;5079321;28;20021;-65
2023/04/07 04:48:56;;;;;;;14.32;9.27;;;4.80;96.50;;;;;;5090780;28;20051;-63
2023/04/07 04:51:22;;;;;;;13.02;8.60;;;4.80;96.30;;;;;;5097555;28;20038;-65
2023/04/07 04:53:48;;;;;;;16.30;9.70;;;4.70;95.90;;;;;;5095262;28;20028;-65
2023/04/07 04:56:14;;;;;;;16.05;10.25;;;4.70;95.40;;;;;;5079918;28;20141;-64
2023/04/07 04:58:41;;;;;;;16.52;9.75;;;4.70;96.00;;;;;;5091566;28;20436;-64
2023/04/07 05:01:06;;;;;;;17.67;11.32;;;4.80;95.80;;;;;;5093667;28;20472;-65
2023/04/07 05:03:32;;;;;;;18.17;10.77;;;4.70;95.60;;;;;;5088711;28;20024;-65
2023/04/07 05:05:57;;;;;;;19.27;10.48;;;4.70;95.70;;;;;;5095045;28;20024;-64
2023/04/07 05:08:23;;;;;;;14.43;9.90;;;4.70;95.50;;;;;;5091895;28;20016;-64
2023/04/07 05:10:48;;;;;;;14.85;10.10;;;4.70;95.60;;;;;;5095885;28;20085;-64
2023/04/07 05:13:14;;;;;;;14.90;10.25;;;4.70;96.20;;;;;;5086738;28;20040;-64
2023/04/07 05:15:42;;;;;;;15.48;10.07;;;4.70;95.80;;;;;;5089384;28;20035;-64
2023/04/07 05:18:08;;;;;;;31.52;17.15;;;4.70;96.00;;;;;;5090977;28;20359;-65
2023/04/07 05:20:34;;;;;;;17.75;13.05;;;4.70;95.80;;;;;;5087695;28;20066;-65
2023/04/07 05:22:59;;;;;;;16.40;11.32;;;4.70;95.40;;;;;;5081940;28;20054;-64
2023/04/07 05:25:25;;;;;;;25.83;16.08;;;4.70;95.50;;;;;;5082119;28;20025;-65
2023/04/07 05:27:50;;;;;;;27.13;16.50;;;4.80;95.50;;;;;;5084340;28;20082;-65
2023/04/07 05:30:16;;;;;;;20.80;12.93;;;4.80;95.90;;;;;;5085150;28;20054;-66
2023/04/07 05:32:41;;;;;;;15.90;10.65;;;4.80;96.10;;;;;;5083958;28;20025;-66
2023/04/07 05:35:07;;;;;;;17.48;11.80;;;4.80;96.30;;;;;;5086338;28;20024;-65
2023/04/07 05:37:33;;;;;;;16.45;11.70;;;4.80;96.20;;;;;;5085174;28;20046;-65
2023/04/07 05:39:59;;;;;;;17.58;11.90;;;4.90;96.50;;;;;;5078911;28;20024;-65
2023/04/07 05:42:27;;;;;;;22.73;13.73;;;4.90;96.20;;;;;;5077897;28;20043;-65
2023/04/07 05:44:52;;;;;;;16.23;11.38;;;5.00;96.90;;;;;;5075835;28;20464;-65
2023/04/07 05:47:18;;;;;;;18.73;12.50;;;5.00;97.00;;;;;;5077876;28;20107;-65
2023/04/07 05:49:47;;;;;;;19.70;12.68;;;5.10;97.20;;;;;;5083027;28;20038;-65
2023/04/07 05:52:13;;;;;;;20.90;13.65;;;5.10;97.00;;;;;;5088888;28;20038;-65
2023/04/07 05:54:41;;;;;;;51.80;34.08;;;5.20;97.10;;;;;;5075381;28;20029;-65
2023/04/07 05:57:07;;;;;;;26.88;17.05;;;5.30;97.00;;;;;;5082366;28;20025;-65
2023/04/07 05:59:36;;;;;;;15.13;11.45;;;5.40;97.20;;;;;;5077516;28;20058;-65
2023/04/07 06:02:02;;;;;;;18.35;11.50;;;5.40;97.40;;;;;;5079905;28;20029;-65
2023/04/07 06:04:28;;;;;;;19.35;12.55;;;5.40;97.30;;;;;;5083841;28;20309;-64
2023/04/07 06:06:54;;;;;;;41.08;24.25;;;5.40;97.30;;;;;;5082469;28;20028;-65
2023/04/07 06:09:23;;;;;;;22.58;15.73;;;5.50;97.10;;;;;;5079036;28;20020;-65
2023/04/07 06:11:49;;;;;;;22.58;13.95;;;5.60;98.00;;;;;;5084705;28;20036;-65
2023/04/07 06:14:17;;;;;;;25.25;14.80;;;5.70;98.00;;;;;;5079491;28;20028;-65
2023/04/07 06:16:42;;;;;;;24.55;15.75;;;5.80;97.70;;;;;;5089834;28;20039;-65
2023/04/07 06:19:08;;;;;;;22.38;14.25;;;6.00;97.70;;;;;;5086814;28;20036;-65
2023/04/07 06:21:33;;;;;;;24.20;14.45;;;6.20;97.80;;;;;;5080822;28;20122;-65
2023/04/07 06:24:00;;;;;;;22.88;15.65;;;6.50;98.00;;;;;;5079877;28;20028;-65
2023/04/07 06:26:26;;;;;;;27.42;16.02;;;6.70;98.00;;;;;;5078383;28;20040;-65
2023/04/07 06:28:51;;;;;;;33.47;24.15;;;6.80;98.00;;;;;;5084324;28;20051;-64
2023/04/07 06:31:24;;;;;;;25.10;17.70;;;7.00;98.00;;;;;;5090784;28;20048;-64
2023/04/07 06:33:50;;;;;;;18.17;12.60;;;7.20;98.00;;;;;;5089715;28;20028;-64
2023/04/07 06:36:16;;;;;;;14.23;9.20;;;7.60;98.00;;;;;;5082797;28;20054;-64
2023/04/07 06:38:41;;;;;;;15.60;10.48;;;8.00;97.60;;;;;;5084259;28;20421;-64
2023/04/07 06:41:10;;;;;;;13.38;9.45;;;8.40;96.70;;;;;;5091327;28;20063;-66
2023/04/07 06:43:36;;;;;;;13.52;8.27;;;8.80;95.30;;;;;;5091595;28;20024;-66
2023/04/07 06:46:02;;;;;;;13.02;8.55;;;8.90;94.70;;;;;;5081502;28;20029;-66
2023/04/07 06:48:27;;;;;;;11.73;8.00;;;9.10;94.40;;;;;;5076803;28;20324;-65
2023/04/07 06:50:53;;;;;;;9.95;7.18;;;9.20;93.90;;;;;;5095181;28;20085;-65
2023/04/07 06:53:18;;;;;;;11.63;7.32;;;9.30;93.30;;;;;;5090970;28;20115;-65
2023/04/07 06:55:44;;;;;;;9.20;6.20;;;9.20;93.20;;;;;;5091781;28;20035;-65
2023/04/07 06:58:09;;;;;;;7.63;5.10;;;9.00;91.80;;;;;;5079966;28;20048;-66
2023/04/07 07:00:35;;;;;;;9.98;5.95;;;8.80;90.60;;;;;;5086415;28;20025;-65
2023/04/07 07:03:01;;;;;;;10.13;6.10;;;8.80;89.30;;;;;;5090798;28;20028;-65
2023/04/07 07:05:27;;;;;;;7.45;4.78;;;8.60;89.60;;;;;;5082051;28;20020;-66
2023/04/07 07:07:52;;;;;;;8.25;5.10;;;8.50;88.70;;;;;;5091280;28;20029;-66
2023/04/07 07:10:21;;;;;;;9.45;5.57;;;8.50;88.70;;;;;;5075741;28;20087;-65
2023/04/07 07:12:50;;;;;;;8.50;4.97;;;8.60;88.80;;;;;;5085864;28;20059;-65
2023/04/07 07:15:19;;;;;;;9.13;5.00;;;8.80;87.90;;;;;;5086689;28;20024;-64
2023/04/07 07:17:45;;;;;;;9.05;4.97;;;8.80;87.40;;;;;;5090572;28;20032;-65
2023/04/07 07:20:10;;;;;;;8.60;5.22;;;8.80;87.30;;;;;;5080640;28;20029;-66
2023/04/07 07:22:36;;;;;;;12.13;5.55;;;9.00;89.10;;;;;;5089520;28;20302;-65
2023/04/07 07:25:02;;;;;;;9.95;6.25;;;9.30;88.90;;;;;;5082437;28;20031;-64
2023/04/07 07:27:27;;;;;;;10.40;5.40;;;9.70;87.00;;;;;;5084194;28;20055;-66
2023/04/07 07:29:56;;;;;;;10.80;4.78;;;9.90;84.70;;;;;;5083673;28;20029;-64
2023/04/07 07:32:22;;;;;;;12.32;7.40;;;10.00;84.70;;;;;;5080367;28;20104;-64
2023/04/07 07:34:47;;;;;;;10.82;6.32;;;10.00;86.10;;;;;;5091502;28;20383;-65
2023/04/07 07:37:13;;;;;;;14.07;7.95;;;10.00;86.90;;;;;;5086030;28;20139;-64
2023/04/07 07:39:38;;;;;;;13.65;7.90;;;10.10;87.40;;;;;;5076727;28;20062;-64
2023/04/07 07:42:04;;;;;;;11.07;6.03;;;9.90;87.00;;;;;;5071697;28;20028;-65
2023/04/07 07:44:29;;;;;;;9.32;5.35;;;9.80;86.50;;;;;;5061987;28;20177;-71
2023/04/07 07:46:55;;;;;;;10.77;5.97;;;9.80;86.30;;;;;;5073879;28;20033;-65
2023/04/07 07:49:28;;;;;;;10.70;6.10;;;10.00;86.80;;;;;;5066783;28;20021;-65
2023/04/07 07:51:54;;;;;;;9.63;5.72;;;10.30;84.80;;;;;;5076164;28;20060;-65
2023/04/07 07:54:20;;;;;;;8.93;5.20;;;10.20;84.20;;;;;;5083387;28;20415;-65
2023/04/07 07:56:45;;;;;;;9.77;5.85;;;10.30;84.20;;;;;;5068000;28;20028;-65
2023/04/07 07:59:11;;;;;;;8.82;4.80;;;10.70;83.10;;;;;;5063659;28;20040;-66
2023/04/07 08:01:37;;;;;;;9.98;5.18;;;10.90;81.70;;;;;;5073712;28;20160;-66
2023/04/07 08:04:02;;;;;;;10.27;5.20;;;11.00;81.70;;;;;;5087776;28;20033;-65
2023/04/07 08:06:28;;;;;;;8.40;5.13;;;11.20;82.30;;;;;;5071553;28;20082;-65
2023/04/07 08:08:54;;;;;;;8.43;5.10;;;12.10;79.90;;;;;;5065695;28;21039;-64
2023/04/07 08:11:20;;;;;;;9.00;4.45;;;12.90;77.30;;;;;;5065234;28;20040;-65
2023/04/07 08:13:45;;;;;;;7.63;4.70;;;13.00;76.60;;;;;;5063835;28;20036;-65
2023/04/07 08:16:11;;;;;;;7.82;5.20;;;12.40;76.70;;;;;;5068998;28;20086;-66
2023/04/07 08:18:36;;;;;;;8.73;4.85;;;11.80;79.70;;;;;;5072506;28;20627;-65
2023/04/07 08:21:05;;;;;;;9.85;5.70;;;11.90;80.10;;;;;;5090509;28;20142;-65
2023/04/07 08:23:31;;;;;;;9.27;5.20;;;12.10;78.80;;;;;;5094258;28;20023;-65
2023/04/07 08:25:59;;;;;;;8.75;5.30;;;11.80;79.40;;;;;;5094232;28;20020;-65
2023/04/07 08:28:26;;;;;;;12.48;5.65;;;11.60;80.60;;;;;;5070509;28;20409;-66
2023/04/07 08:30:51;;;;;;;9.60;4.97;;;11.90;79.30;;;;;;5080096;28;20028;-64
2023/04/07 08:33:17;;;;;;;8.77;5.22;;;12.10;78.60;;;;;;5074046;28;20054;-64
2023/04/07 08:35:42;;;;;;;10.68;4.88;;;11.90;79.30;;;;;;5082272;28;20348;-64
2023/04/07 08:38:08;;;;;;;9.10;5.10;;;11.40;81.00;;;;;;5075058;28;20028;-65
2023/04/07 08:40:34;;;;;;;8.95;4.80;;;11.50;81.20;;;;;;5084385;28;20077;-63
2023/04/07 08:43:06;;;;;;;8.90;4.60;;;11.20;81.60;;;;;;5079792;28;20099;-64
2023/04/07 08:45:33;;;;;;;9.13;5.68;;;11.50;82.00;;;;;;5078559;28;20032;-64
2023/04/07 08:48:05;;;;;;;8.90;4.95;;;12.00;80.80;;;;;;5079988;28;20017;-64
2023/04/07 08:50:31;;;;;;;9.02;5.15;;;12.40;79.60;;;;;;5085993;28;20028;-65
2023/04/07 08:52:59;;;;;;;7.65;3.97;;;13.00;77.80;;;;;;5076244;28;20035;-65
2023/04/07 08:55:28;;;;;;;8.73;3.90;;;14.10;76.50;;;;;;5090847;28;20744;-65
2023/04/07 08:57:58;;;;;;;9.50;4.07;;;15.40;73.00;;;;;;5082087;28;20040;-65
2023/04/07 09:00:27;;;;;;;8.18;4.13;;;16.30;72.60;;;;;;5092497;28;20100;-65
2023/04/07 09:02:59;;;;;;;9.15;3.80;;;17.10;68.70;;;;;;5085434;28;20169;-66
2023/04/07 09:05:25;;;;;;;7.20;3.20;;;16.80;67.40;;;;;;5083141;28;20020;-65
2023/04/07 09:07:51;;;;;;;6.63;3.17;;;17.10;68.10;;;;;;5096240;28;20028;-66
2023/04/07 09:10:17;;;;;;;8.73;2.97;;;17.30;66.30;;;;;;5090942;28;20462;-66
2023/04/07 09:12:42;;;;;;;6.85;3.65;;;16.60;68.00;;;;;;5081434;28;20103;-66
2023/04/07 09:15:08;;;;;;;7.72;3.75;;;15.30;70.00;;;;;;5076419;28;20028;-65
2023/04/07 09:17:34;;;;;;;6.85;3.55;;;13.90;73.40;;;;;;5077168;28;20060;-65
2023/04/07 09:20:00;;;;;;;7.07;2.88;;;13.10;74.90;;;;;;5083329;28;20058;-65
2023/04/07 09:22:37;;;;;;;6.82;3.15;;;12.40;76.90;;;;;;5096809;28;20035;-65
2023/04/07 09:25:16;;;;;;;10.30;3.53;;;12.10;78.90;;;;;;5093080;28;20024;-64
2023/04/07 09:27:59;;;;;;;5.53;3.08;;;12.70;78.90;;;;;;5096279;28;20024;-65
2023/04/07 09:30:25;;;;;;;7.47;3.67;;;13.70;76.80;;;;;;5077701;28;20032;-64
2023/04/07 09:32:51;;;;;;;7.15;4.43;;;14.30;74.40;;;;;;5095366;28;20142;-64
2023/04/07 09:35:17;;;;;;;6.85;3.72;;;14.70;73.70;;;;;;5087054;28;20464;-66
2023/04/07 09:37:43;;;;;;;9.02;4.35;;;15.10;72.10;;;;;;5093793;28;20038;-66
2023/04/07 09:40:09;;;;;;;6.95;3.08;;;15.30;72.10;;;;;;5090993;28;20024;-66
2023/04/07 09:42:43;;;;;;;9.38;3.28;;;15.80;70.00;;;;;;5081437;28;20036;-67
2023/04/07 09:45:09;;;;;;;5.90;3.15;;;15.80;70.00;;;;;;5076654;28;20478;-65
2023/04/07 09:47:34;;;;;;;7.18;3.17;;;15.40;70.10;;;;;;5078731;28;20355;-66
2023/04/07 09:50:05;;;;;;;7.07;3.95;;;14.80;71.00;;;;;;5080317;28;20020;-65
2023/04/07 09:52:51;;;;;;;7.45;4.00;;;14.90;72.00;;;;;;5079715;28;20086;-65
2023/04/07 09:55:20;;;;;;;8.27;4.05;;;15.40;71.00;;;;;;5081015;28;20031;-65
2023/04/07 09:57:49;;;;;;;6.63;3.15;;;16.30;69.30;;;;;;5077387;28;20083;-66
2023/04/07 10:00:15;;;;;;;11.02;4.07;;;17.80;67.20;;;;;;5076148;28;20321;-66
2023/04/07 10:02:41;;;;;;;8.32;3.75;;;18.60;65.20;;;;;;5076461;28;20035;-66
2023/04/07 10:05:08;;;;;;;7.03;3.10;;;18.60;65.70;;;;;;5083263;28;20058;-65
2023/04/07 10:07:34;;;;;;;9.85;3.28;;;17.80;66.80;;;;;;5096216;28;20476;-66
2023/04/07 10:10:00;;;;;;;7.70;3.00;;;18.10;66.70;;;;;;5095776;28;20108;-65
2023/04/07 10:12:26;;;;;;;6.95;3.42;;;17.90;65.20;;;;;;5087421;28;20077;-65
2023/04/07 10:14:53;;;;;;;7.07;3.28;;;16.90;66.50;;;;;;5087920;28;20028;-65
2023/04/07 10:17:21;;;;;;;7.43;3.20;;;15.60;69.70;;;;;;5096309;28;20024;-65
2023/04/07 10:19:49;;;;;;;8.43;3.65;;;14.80;70.90;;;;;;5093007;28;20024;-65
2023/04/07 10:22:16;;;;;;;6.15;3.25;;;14.40;72.30;;;;;;5088172;28;20422;-65
2023/04/07 10:24:56;;;;;;;9.02;3.95;;;14.20;72.00;;;;;;5089778;28;20145;-65
2023/04/07 10:27:28;;;;;;;8.35;3.60;;;14.80;71.70;;;;;;5091936;28;20028;-65
2023/04/07 10:29:56;;;;;;;6.28;3.30;;;15.50;70.00;;;;;;5083823;28;20099;-65
2023/04/07 10:32:22;;;;;;;5.60;2.97;;;16.80;67.20;;;;;;5090752;28;20024;-65
2023/04/07 10:34:54;;;;;;;7.05;3.25;;;17.30;66.00;;;;;;5080408;28;20036;-65
2023/04/07 10:37:21;;;;;;;5.70;2.95;;;17.40;66.60;;;;;;5081099;28;20340;-65
2023/04/07 10:40:17;;;;;;;6.25;3.20;;;17.00;64.80;;;;;;5089510;28;20057;-64
2023/04/07 10:42:45;;;;;;;7.30;3.10;;;16.40;66.30;;;;;;5089289;28;20135;-66
2023/04/07 10:45:11;;;;;;;6.97;3.00;;;17.30;65.80;;;;;;5084644;28;20074;-65
2023/04/07 10:48:06;;;;;;;9.70;3.42;;;17.00;65.10;;;;;;5091595;28;20042;-64
2023/04/07 10:50:31;;;;;;;8.00;2.72;;;16.50;65.30;;;;;;5092215;28;20077;-64
2023/04/07 10:53:14;;;;;;;6.53;2.85;;;15.70;66.80;;;;;;5095312;28;20367;-64
2023/04/07 10:55:42;;;;;;;6.18;2.38;;;15.90;65.80;;;;;;5087170;28;20034;-61
2023/04/07 10:58:23;;;;;;;7.95;2.45;;;16.30;63.80;;;;;;5089040;28;20044;-63
2023/04/07 11:01:13;;;;;;;6.88;2.45;;;16.30;63.60;;;;;;5093026;28;20031;-64
2023/04/07 11:03:41;;;;;;;6.70;2.33;;;16.00;65.30;;;;;;5087543;28;20162;-63
2023/04/07 11:06:11;;;;;;;6.93;2.30;;;16.00;66.10;;;;;;5087127;28;20022;-63
2023/04/07 11:08:45;;;;;;;6.25;2.22;;;15.80;65.10;;;;;;5084548;28;20031;-63
2023/04/07 11:11:13;;;;;;;6.88;2.30;;;16.00;66.40;;;;;;5088416;28;20039;-64
2023/04/07 11:13:48;;;;;;;6.30;2.40;;;16.20;65.60;;;;;;5085812;28;20032;-64
2023/04/07 11:16:18;;;;;;;10.63;4.32;;;16.10;65.30;;;;;;5080777;28;20321;-64
2023/04/07 11:18:47;;;;;;;11.45;4.75;;;15.70;65.60;;;;;;5080293;28;20395;-65
2023/04/07 11:21:17;;;;;;;11.43;5.45;;;15.00;66.50;;;;;;5091227;28;20028;-65
2023/04/07 11:23:44;;;;;;;14.40;4.78;;;14.40;67.70;;;;;;5086174;28;20117;-65
2023/04/07 11:26:11;;;;;;;6.07;2.70;;;14.20;69.00;;;;;;5084366;28;20032;-64
2023/04/07 11:28:52;;;;;;;7.13;2.70;;;14.00;69.30;;;;;;5076585;28;20035;-64
2023/04/07 11:31:25;;;;;;;7.07;2.53;;;14.40;68.70;;;;;;5079699;28;20020;-64
2023/04/07 11:33:55;;;;;;;6.78;2.55;;;14.50;69.00;;;;;;5080543;28;20021;-64
2023/04/07 11:36:46;;;;;;;6.30;2.70;;;14.30;69.10;;;;;;5081521;28;20032;-64
2023/04/07 11:39:20;;;;;;;7.13;2.55;;;14.50;69.00;;;;;;5083838;28;20036;-64
2023/04/07 11:41:47;;;;;;;9.35;3.20;;;14.90;67.70;;;;;;5082189;28;20024;-64
2023/04/07 11:44:13;;;;;;;7.20;2.83;;;15.10;67.00;;;;;;5076851;28;20041;-65
2023/04/07 11:47:00;;;;;;;6.25;2.72;;;14.90;66.30;;;;;;5077287;28;20038;-64
2023/04/07 11:49:27;;;;;;;11.23;2.80;;;14.90;68.50;;;;;;5084205;28;20040;-64
2023/04/07 11:52:02;;;;;;;8.38;3.30;;;14.50;72.20;;;;;;5078805;28;20028;-64
2023/04/07 11:54:51;;;;;;;7.43;2.85;;;14.30;73.70;;;;;;5101831;28;20423;-64
2023/04/07 11:57:28;;;;;;;8.60;3.13;;;13.80;75.10;;;;;;5085402;28;20028;-64
2023/04/07 12:00:07;;;;;;;8.90;2.90;;;13.50;74.90;;;;;;5087794;28;20115;-64
2023/04/07 12:02:33;;;;;;;6.53;3.22;;;13.20;75.90;;;;;;5082830;28;20428;-64
2023/04/07 12:04:59;;;;;;;8.02;2.97;;;12.90;76.10;;;;;;5088981;28;20061;-64
2023/04/07 12:07:25;;;;;;;9.23;3.17;;;12.70;77.40;;;;;;5080522;28;20025;-64
2023/04/07 12:09:52;;;;;;;8.93;3.78;;;13.30;76.80;;;;;;5091283;28;20036;-64
2023/04/07 12:12:28;;;;;;;8.85;3.40;;;13.10;77.50;;;;;;5086513;28;20020;-64
2023/04/07 12:14:55;;;;;;;6.72;2.97;;;13.20;77.50;;;;;;5076811;28;20025;-63
2023/04/07 12:17:25;;;;;;;7.63;2.92;;;13.60;76.90;;;;;;5075237;28;20081;-63
2023/04/07 12:19:51;;;;;;;7.28;3.65;;;13.80;76.10;;;;;;5082206;28;20040;-63
2023/04/07 12:22:18;;;;;;;7.50;3.83;;;13.80;75.50;;;;;;5088763;28;20032;-63
2023/04/07 12:24:43;;;;;;;6.25;2.92;;;13.70;75.90;;;;;;5084136;28;20055;-63
2023/04/07 12:27:18;;;;;;;8.02;3.97;;;13.50;76.40;;;;;;5085026;28;20408;-63
2023/04/07 12:29:43;;;;;;;12.55;4.72;;;13.20;77.60;;;;;;5072725;28;20032;-65
2023/04/07 12:32:12;;;;;;;10.40;4.57;;;13.40;77.30;;;;;;5078542;28;20032;-65
2023/04/07 12:34:38;;;;;;;8.35;2.90;;;13.60;76.80;;;;;;5081756;28;20043;-63
2023/04/07 12:37:03;;;;;;;9.25;4.40;;;13.70;77.20;;;;;;5081717;28;20103;-62
2023/04/07 12:39:30;;;;;;;8.73;4.68;;;14.20;75.50;;;;;;5085924;28;20122;-64
2023/04/07 12:41:58;;;;;;;8.75;4.18;;;14.20;74.50;;;;;;5083093;28;20033;-63
2023/04/07 12:44:24;;;;;;;8.73;3.58;;;13.90;75.10;;;;;;5077970;28;20028;-65
2023/04/07 12:46:50;;;;;;;6.03;3.00;;;13.60;75.10;;;;;;5093208;28;20035;-63